Time;durP1;ratioP1;P1;durP2;ratioP2;P2;SDS_P1;SDS_P2;PMS_P1;PMS_P2;Temp;Humidity;BMP_temperature;BMP_pressure;BME280_temperature;BME280_humidity;BME280_pressure;Samples;Min_cycle;Max_cycle;Signal;HPM_P1;HPM_P2
2023/01/25 00:01:21;;;;;;;11.18;9.38;;;;;;;4.48;69.52;102053.16;10347008;28;20060;-49
2023/01/25 00:06:22;;;;;;;13.35;11.05;;;;;;;4.45;69.69;102054.09;10343652;28;20673;-49
2023/01/25 00:11:23;;;;;;;13.05;11.05;;;;;;;4.55;69.50;102047.66;10344685;28;20419;-48
2023/01/25 00:16:25;;;;;;;10.65;9.55;;;;;;;4.51;69.81;102048.66;10344083;28;20045;-49
2023/01/25 00:21:26;;;;;;;11.93;10.60;;;;;;;4.43;69.98;102042.72;10348103;28;20049;-49
2023/01/25 00:26:33;;;;;;;12.35;10.98;;;;;;;4.42;70.01;102043.63;10340511;28;20050;-49
2023/01/25 00:37:17;;;;;;;10.82;9.35;;;;;;;4.44;69.97;102041.81;10346558;28;20126;-48
2023/01/25 00:42:19;;;;;;;11.57;9.38;;;;;;;4.30;69.84;102017.59;10343764;28;20054;-49
2023/01/25 00:47:20;;;;;;;11.18;10.02;;;;;;;4.41;69.88;102026.06;10342718;28;20054;-49
2023/01/25 00:52:22;;;;;;;10.77;9.68;;;;;;;4.43;70.06;102021.63;10344055;28;20060;-49
2023/01/25 00:57:24;;;;;;;11.18;9.98;;;;;;;4.42;69.63;102009.34;10338458;28;20073;-49
2023/01/25 01:02:25;;;;;;;11.10;8.93;;;;;;;4.41;69.35;102023.41;10343731;28;20523;-50
2023/01/25 01:08:23;;;;;;;10.73;9.43;;;;;;;4.38;69.78;102028.78;10342263;28;20129;-49
2023/01/25 01:13:25;;;;;;;10.90;8.45;;;;;;;4.35;70.22;102031.50;10345280;28;20057;-49
2023/01/25 01:24:24;;;;;;;10.40;9.38;;;;;;;4.35;70.27;102024.44;10341144;28;20041;-50
2023/01/25 01:29:26;;;;;;;10.57;9.48;;;;;;;4.37;70.45;102029.72;10346616;28;20057;-48
2023/01/25 01:34:27;;;;;;;10.25;8.63;;;;;;;4.39;70.07;102019.97;10342235;28;20147;-48
2023/01/25 01:39:29;;;;;;;10.82;9.23;;;;;;;4.34;70.05;101999.00;10345602;28;20755;-49
2023/01/25 01:44:46;;;;;;;10.57;9.48;;;;;;;4.38;69.80;102020.88;10341060;28;20411;-48
2023/01/25 01:49:54;;;;;;;10.73;9.30;;;;;;;4.21;69.90;101987.03;10337061;28;20615;-49
2023/01/25 01:55:00;;;;;;;9.95;8.68;;;;;;;4.37;70.07;102008.63;10337988;28;20100;-48
2023/01/25 02:00:05;;;;;;;10.35;9.25;;;;;;;4.36;70.42;102007.72;10344108;28;20045;-48
2023/01/25 02:05:16;;;;;;;9.57;8.05;;;;;;;4.35;69.94;101999.84;10338431;28;20053;-49
2023/01/25 02:10:19;;;;;;;9.82;8.82;;;;;;;4.39;70.16;102004.16;10339583;28;20777;-50
2023/01/25 02:15:21;;;;;;;9.75;8.75;;;;;;;4.39;70.06;101990.97;10335847;28;20761;-49
2023/01/25 02:20:36;;;;;;;10.55;9.43;;;;;;;4.37;70.43;101998.06;10337530;28;20053;-50
2023/01/25 02:25:40;;;;;;;10.00;8.98;;;;;;;4.35;70.25;101990.16;10334938;28;20057;-50
2023/01/25 02:30:42;;;;;;;9.55;7.97;;;;;;;4.36;69.85;101991.91;10337179;28;20123;-48
2023/01/25 02:35:52;;;;;;;9.32;8.43;;;;;;;4.36;69.92;101986.63;10350667;28;20053;-47
2023/01/25 02:41:01;;;;;;;9.07;8.10;;;;;;;4.43;70.36;101990.84;10334853;28;20104;-49
2023/01/25 02:46:13;;;;;;;10.38;8.95;;;;;;;4.24;69.82;101968.50;10332793;28;20566;-49
2023/01/25 02:51:15;;;;;;;10.18;9.18;;;;;;;4.30;70.18;101972.75;10334514;28;20050;-49
2023/01/25 02:56:17;;;;;;;9.90;8.95;;;;;;;4.34;70.08;101988.47;10330643;28;20154;-48
2023/01/25 03:01:20;;;;;;;9.52;8.55;;;;;;;4.32;70.56;101992.03;10343919;28;20798;-48
2023/01/25 03:06:21;;;;;;;10.23;9.13;;;;;;;4.28;70.69;101986.00;10356203;28;20045;-51
2023/01/25 03:11:23;;;;;;;11.10;9.43;;;;;;;4.32;70.77;101979.69;10351251;28;20611;-49
2023/01/25 03:16:24;;;;;;;10.82;9.20;;;;;;;4.24;70.75;101976.41;10344163;28;20725;-49
2023/01/25 03:21:26;;;;;;;11.75;10.02;;;;;;;4.36;71.02;101980.50;10344921;28;20736;-49
2023/01/25 03:26:28;;;;;;;9.77;8.77;;;;;;;4.39;70.46;101975.16;10345757;28;20046;-49
2023/01/25 03:31:29;;;;;;;10.65;9.30;;;;;;;4.34;70.65;101961.22;10346421;28;20488;-49
2023/01/25 03:36:31;;;;;;;10.82;9.57;;;;;;;4.35;70.92;101957.69;10346548;28;21437;-49
2023/01/25 03:41:32;;;;;;;10.68;9.45;;;;;;;4.31;70.93;101956.00;10353856;28;20094;-51
2023/01/25 03:46:34;;;;;;;10.30;9.30;;;;;;;4.31;70.94;101951.63;10345938;28;20080;-50
2023/01/25 03:51:35;;;;;;;10.95;9.82;;;;;;;4.31;71.13;101951.63;10346206;28;20211;-49
2023/01/25 03:56:37;;;;;;;10.05;9.00;;;;;;;4.24;71.17;101944.78;10348547;28;20045;-50
2023/01/25 04:01:39;;;;;;;9.10;8.20;;;;;;;4.27;71.33;101944.69;10345037;28;20526;-50
2023/01/25 04:06:40;;;;;;;9.55;8.57;;;;;;;4.16;71.37;101937.09;10348574;28;20056;-50
2023/01/25 04:11:42;;;;;;;9.60;8.55;;;;;;;4.11;71.82;101938.97;10344396;28;20192;-50
2023/01/25 04:16:43;;;;;;;9.98;8.98;;;;;;;4.05;72.05;101944.41;10344607;28;20668;-50
2023/01/25 04:21:45;;;;;;;9.77;8.73;;;;;;;4.14;71.91;101938.88;10351415;28;20092;-50
2023/01/25 04:26:46;;;;;;;9.80;8.77;;;;;;;4.13;71.90;101939.81;10352640;28;20041;-49
2023/01/25 04:31:48;;;;;;;10.68;7.85;;;;;;;4.02;72.03;101926.03;10347655;28;20895;-49
2023/01/25 04:36:49;;;;;;;9.90;8.90;;;;;;;4.07;71.69;101916.25;10341925;28;20612;-49
2023/01/25 04:41:50;;;;;;;9.23;8.30;;;;;;;4.04;71.86;101921.63;10345972;28;20068;-49
2023/01/25 04:46:52;;;;;;;9.55;8.50;;;;;;;4.03;71.87;101911.97;10344063;28;20747;-49
2023/01/25 04:51:54;;;;;;;9.60;8.60;;;;;;;4.06;71.94;101914.50;10329302;28;20050;-49
2023/01/25 04:56:55;;;;;;;9.35;8.35;;;;;;;4.04;72.12;101908.44;10343262;28;20049;-52
2023/01/25 05:01:56;;;;;;;8.90;8.00;;;;;;;4.04;71.79;101904.03;10341808;28;20132;-51
2023/01/25 05:06:58;;;;;;;9.23;8.15;;;;;;;4.09;71.51;101898.63;10343024;28;20046;-50
2023/01/25 05:11:59;;;;;;;10.13;8.95;;;;;;;3.96;71.54;101881.41;10347156;28;20627;-50
2023/01/25 05:17:01;;;;;;;9.43;8.52;;;;;;;4.04;71.95;101890.84;10342625;28;20088;-50
2023/01/25 05:22:06;;;;;;;9.20;8.30;;;;;;;3.89;71.97;101873.66;10351424;28;20061;-50
2023/01/25 05:27:09;;;;;;;9.75;8.80;;;;;;;3.96;72.05;101884.03;10342788;28;20092;-51
2023/01/25 05:32:13;;;;;;;9.55;8.55;;;;;;;3.98;72.15;101882.22;10347122;28;20056;-49
2023/01/25 05:37:18;;;;;;;9.90;8.90;;;;;;;3.92;72.14;101869.22;10341675;28;20793;-49
2023/01/25 05:42:19;;;;;;;9.53;8.53;;;;;;;3.90;72.06;101877.16;10345185;28;20054;-49
2023/01/25 05:47:20;;;;;;;10.15;9.15;;;;;;;3.85;72.54;101874.66;10354341;28;20734;-50
2023/01/25 05:52:23;;;;;;;9.40;8.52;;;;;;;3.90;72.53;101874.53;10346806;28;20415;-49
2023/01/25 05:57:25;;;;;;;10.77;8.50;;;;;;;3.97;72.52;101873.47;10337998;28;20119;-49
2023/01/25 06:02:26;;;;;;;11.18;9.80;;;;;;;3.80;72.61;101851.97;10336803;28;20061;-49
2023/01/25 06:07:28;;;;;;;10.55;9.52;;;;;;;3.82;72.56;101864.19;10334457;28;20392;-50
2023/01/25 06:12:29;;;;;;;10.63;9.38;;;;;;;3.75;72.71;101852.09;10344451;28;20531;-51
2023/01/25 06:17:31;;;;;;;10.05;9.00;;;;;;;3.84;72.83;101867.69;10343106;28;20056;-49
2023/01/25 06:22:33;;;;;;;11.23;9.73;;;;;;;3.83;72.82;101876.47;10348188;28;20493;-51
2023/01/25 06:27:34;;;;;;;10.75;9.73;;;;;;;3.28;74.36;101839.25;10347947;28;20052;-49
2023/01/25 06:32:35;;;;;;;11.38;9.18;;;;;;;3.53;74.08;101863.19;10350147;28;20564;-50
2023/01/25 06:37:37;;;;;;;10.00;8.90;;;;;;;3.66;73.59;101860.22;10343083;28;20049;-49
2023/01/25 06:42:39;;;;;;;10.25;9.25;;;;;;;3.73;73.50;101869.72;10350523;28;20233;-50
2023/01/25 06:47:40;;;;;;;10.68;9.57;;;;;;;3.75;73.44;101873.16;10348367;28;20085;-49
2023/01/25 06:52:50;;;;;;;11.35;10.20;;;;;;;3.72;73.94;101870.59;10345472;28;20053;-50
2023/01/25 06:57:52;;;;;;;11.80;10.10;;;;;;;3.75;73.61;101862.63;10349968;28;20042;-50
2023/01/25 07:02:53;;;;;;;11.10;9.60;;;;;;;3.68;73.30;101850.53;10344672;28;20060;-49
2023/01/25 07:07:55;;;;;;;12.30;9.93;;;;;;;3.65;73.67;101866.44;10346541;28;20053;-48
2023/01/25 07:12:56;;;;;;;11.68;10.05;;;;;;;3.63;73.87;101850.63;10344766;28;20054;-48
2023/01/25 07:17:58;;;;;;;12.02;10.73;;;;;;;3.81;73.21;101867.72;10344002;28;20757;-49
2023/01/25 07:23:15;;;;;;;12.27;10.90;;;;;;;3.74;72.96;101860.91;10349031;28;20175;-49
2023/01/25 07:28:16;;;;;;;12.10;10.80;;;;;;;3.77;73.03;101865.22;10345766;28;20054;-49
2023/01/25 07:33:18;;;;;;;11.27;10.18;;;;;;;3.81;73.68;101873.00;10348164;28;20097;-49
2023/01/25 07:38:19;;;;;;;10.13;9.13;;;;;;;3.57;74.62;101863.09;10346078;28;20788;-48
2023/01/25 07:43:21;;;;;;;10.88;9.77;;;;;;;3.35;73.85;101842.59;10342972;28;20228;-48
2023/01/25 07:48:23;;;;;;;11.02;9.80;;;;;;;3.42;74.13;101859.94;10339525;28;20730;-49
2023/01/25 07:53:24;;;;;;;10.73;9.63;;;;;;;3.33;74.58;101858.44;10343494;28;20136;-49
2023/01/25 07:58:28;;;;;;;11.77;10.57;;;;;;;3.31;74.78;101859.38;10346027;28;20128;-49
2023/01/25 08:03:32;;;;;;;9.57;8.57;;;;;;;3.26;74.99;101862.13;10348689;28;20041;-55
2023/01/25 08:08:36;;;;;;;10.50;9.32;;;;;;;3.26;74.89;101848.94;10345877;28;20135;-50
2023/01/25 08:13:38;;;;;;;11.00;9.90;;;;;;;3.30;74.86;101852.34;10351287;28;20057;-50
2023/01/25 08:18:40;;;;;;;10.45;9.30;;;;;;;3.38;74.62;101858.31;10350878;28;20210;-51
2023/01/25 08:23:41;;;;;;;9.43;8.43;;;;;;;3.38;74.36;101868.84;10351541;28;20091;-49
2023/01/25 08:28:43;;;;;;;11.27;10.00;;;;;;;3.41;75.31;101863.50;10350146;28;20041;-49
2023/01/25 08:33:45;;;;;;;13.13;11.45;;;;;;;3.54;74.24;101854.41;10347113;28;20049;-50
2023/01/25 08:38:47;;;;;;;11.00;9.82;;;;;;;3.58;73.88;101854.31;10351164;28;20096;-49
2023/01/25 08:43:51;;;;;;;13.68;11.90;;;;;;;3.57;73.73;101842.03;10350692;28;20058;-49
2023/01/25 08:48:54;;;;;;;11.73;9.85;;;;;;;3.69;73.24;101841.72;10347723;28;20115;-49
2023/01/25 08:53:56;;;;;;;10.57;9.48;;;;;;;3.67;73.23;101843.53;10350640;28;20049;-49
2023/01/25 08:58:58;;;;;;;11.50;10.02;;;;;;;3.72;73.19;101836.38;10346057;28;20411;-50
2023/01/25 09:03:59;;;;;;;11.65;10.40;;;;;;;3.66;73.47;101826.88;10341458;28;20045;-49
2023/01/25 09:09:03;;;;;;;14.13;10.80;;;;;;;3.68;73.22;101829.47;10348689;28;20057;-49
2023/01/25 09:14:05;;;;;;;11.73;9.85;;;;;;;3.69;73.55;101831.19;10350608;28;20050;-49
2023/01/25 09:19:06;;;;;;;11.23;9.98;;;;;;;3.71;73.59;101830.25;10345273;28;20054;-49
2023/01/25 09:24:08;;;;;;;11.88;10.32;;;;;;;3.74;73.08;101836.31;10347795;28;20638;-50
2023/01/25 09:29:10;;;;;;;11.43;10.07;;;;;;;3.71;73.17;101824.13;10349254;28;20571;-50
2023/01/25 09:34:14;;;;;;;10.65;9.50;;;;;;;3.50;72.64;101783.44;10345588;28;20057;-50
2023/01/25 09:39:15;;;;;;;13.25;9.90;;;;;;;3.76;72.49;101819.59;10346407;28;20072;-51
2023/01/25 09:44:30;;;;;;;12.55;9.98;;;;;;;3.70;72.74;101827.66;10349046;28;20060;-50
2023/01/25 09:50:00;;;;;;;11.30;10.10;;;;;;;3.84;72.62;101824.63;10340766;28;20061;-49
2023/01/25 09:55:11;;;;;;;10.70;9.38;;;;;;;3.84;72.71;101815.00;10353716;28;20379;-49
2023/01/25 10:00:22;;;;;;;11.73;10.52;;;;;;;3.78;72.35;101820.41;10347567;28;20604;-50
2023/01/25 10:05:31;;;;;;;11.98;9.60;;;;;;;3.69;72.39;101815.38;10346193;28;20168;-49
2023/01/25 10:10:39;;;;;;;11.82;10.00;;;;;;;3.61;73.15;101812.94;10348346;28;20856;-50
2023/01/25 10:15:48;;;;;;;11.50;10.30;;;;;;;3.62;73.12;101804.16;10347685;28;22130;-49
2023/01/25 10:20:56;;;;;;;11.48;10.27;;;;;;;3.62;73.32;101798.00;10342058;28;20448;-49
2023/01/25 10:26:00;;;;;;;11.40;10.18;;;;;;;3.70;73.74;101790.78;10342043;28;20053;-51
2023/01/25 10:31:28;;;;;;;13.25;10.90;;;;;;;3.70;72.97;101775.81;10346941;28;20626;-50
2023/01/25 10:36:30;;;;;;;14.82;10.95;;;;;;;3.65;73.26;101769.84;10341999;28;20059;-49
2023/01/25 10:41:40;;;;;;;12.85;10.75;;;;;;;3.56;73.47;101766.56;10349992;28;20154;-50
2023/01/25 10:46:49;;;;;;;14.60;11.88;;;;;;;3.55;73.72;101760.47;10341153;28;20067;-50
2023/01/25 10:51:51;;;;;;;12.73;10.68;;;;;;;3.48;73.90;101749.25;10347823;28;20171;-50
2023/01/25 10:56:52;;;;;;;13.50;11.35;;;;;;;3.51;73.91;101737.75;10347429;28;20274;-50
2023/01/25 11:01:54;;;;;;;11.82;9.52;;;;;;;3.61;73.45;101727.84;10347424;28;20049;-50
2023/01/25 11:06:56;;;;;;;13.95;11.85;;;;;;;3.71;73.52;101732.78;10339073;28;20831;-51
2023/01/25 11:12:00;;;;;;;15.52;12.38;;;;;;;3.76;73.17;101722.13;10345119;28;20065;-51
2023/01/25 11:17:04;;;;;;;15.17;12.60;;;;;;;3.75;73.07;101709.84;10348412;28;20049;-50
2023/01/25 11:22:22;;;;;;;13.90;11.93;;;;;;;3.80;73.50;101710.59;10339212;28;20860;-51
2023/01/25 11:27:26;;;;;;;15.15;12.70;;;;;;;3.85;72.76;101708.69;10348839;28;20585;-51
2023/01/25 11:32:27;;;;;;;14.68;11.48;;;;;;;3.84;73.02;101688.53;10353198;28;20048;-51
2023/01/25 11:38:02;;;;;;;14.90;11.30;;;;;;;3.79;72.69;101674.63;10349799;28;20434;-51
2023/01/25 11:43:28;;;;;;;14.10;12.15;;;;;;;3.80;72.71;101670.19;10352759;28;20057;-50
2023/01/25 11:48:58;;;;;;;13.43;12.02;;;;;;;3.80;72.87;101657.91;10350280;28;20136;-50
2023/01/25 11:54:29;;;;;;;12.88;11.27;;;;;;;3.81;73.13;101651.72;10352003;28;20403;-50
2023/01/25 11:59:53;;;;;;;14.85;11.30;;;;;;;3.88;72.48;101640.09;10339093;28;20083;-50
2023/01/25 12:05:04;;;;;;;16.17;11.40;;;;;;;3.98;72.21;101629.28;10350468;28;20081;-50
2023/01/25 12:10:38;;;;;;;14.20;11.70;;;;;;;3.89;72.17;101617.28;10346360;28;20164;-50
2023/01/25 12:16:08;;;;;;;12.70;10.95;;;;;;;3.54;72.34;101569.16;10353214;28;20046;-50
2023/01/25 12:21:23;;;;;;;14.68;11.52;;;;;;;3.85;72.43;101597.19;10348767;28;20516;-50
2023/01/25 12:26:52;;;;;;;15.27;11.63;;;;;;;3.83;72.45;101583.22;10349720;28;20646;-52
2023/01/25 12:31:57;;;;;;;14.27;11.50;;;;;;;3.79;72.65;101582.44;10350770;28;20061;-49
2023/01/25 12:37:12;;;;;;;13.70;11.52;;;;;;;3.78;72.55;101564.88;10352901;28;20730;-51
2023/01/25 12:42:36;;;;;;;15.93;12.70;;;;;;;3.76;72.70;101564.09;10356378;28;20931;-50
2023/01/25 12:47:52;;;;;;;11.00;9.70;;;;;;;3.81;72.10;101558.66;10347587;28;20187;-50
2023/01/25 12:53:03;;;;;;;12.43;11.07;;;;;;;3.78;72.70;101549.09;10346071;28;20114;-50
2023/01/25 12:58:15;;;;;;;14.02;11.35;;;;;;;3.68;72.85;101550.31;10343218;28;20559;-50
2023/01/25 13:03:46;;;;;;;13.60;12.02;;;;;;;3.75;72.99;101540.44;10346806;28;20072;-53
2023/01/25 13:09:02;;;;;;;14.23;11.88;;;;;;;3.72;72.92;101533.47;10344935;28;20045;-50
2023/01/25 13:14:15;;;;;;;14.38;11.68;;;;;;;3.72;72.97;101515.94;10346903;28;20058;-49
2023/01/25 13:19:19;;;;;;;13.60;10.70;;;;;;;3.75;72.75;101503.56;10349365;28;20056;-50
2023/01/25 13:24:25;;;;;;;13.48;11.35;;;;;;;3.68;72.83;101492.38;10340933;28;20045;-56
2023/01/25 13:29:39;;;;;;;12.45;11.15;;;;;;;3.67;72.47;101469.56;10344346;28;20300;-50
2023/01/25 13:34:41;;;;;;;13.68;11.48;;;;;;;3.61;73.09;101464.50;10344571;28;20056;-54
2023/01/25 13:39:54;;;;;;;14.52;11.98;;;;;;;3.64;72.86;101464.41;10343282;28;20627;-51
2023/01/25 13:45:12;;;;;;;13.63;11.18;;;;;;;3.65;73.10;101464.34;10344751;28;20060;-50
2023/01/25 13:50:13;;;;;;;14.93;12.18;;;;;;;3.72;73.03;101451.84;10339762;28;20041;-50
2023/01/25 13:55:18;;;;;;;15.20;11.98;;;;;;;3.65;73.04;101447.72;10339493;28;20661;-51
2023/01/25 14:00:20;;;;;;;15.02;11.70;;;;;;;3.31;73.35;101404.88;10339512;28;20065;-51
2023/01/25 14:05:24;;;;;;;15.48;11.88;;;;;;;3.52;73.53;101434.91;10336589;28;20206;-50
2023/01/25 14:10:27;;;;;;;16.13;12.40;;;;;;;3.54;73.60;101430.47;10339046;28;20136;-51
2023/01/25 14:15:31;;;;;;;16.27;12.75;;;;;;;3.57;73.64;101411.06;10344089;28;20135;-50
2023/01/25 14:20:33;;;;;;;15.30;12.63;;;;;;;3.61;73.19;101412.69;10334713;28;20052;-50
2023/01/25 14:25:39;;;;;;;14.40;12.15;;;;;;;3.30;73.70;101368.06;10337321;28;20057;-51
2023/01/25 14:30:40;;;;;;;16.40;12.95;;;;;;;3.56;73.41;101400.59;10345795;28;20063;-50
2023/01/25 14:35:43;;;;;;;13.73;11.05;;;;;;;3.40;73.87;101384.44;10342100;28;20106;-50
2023/01/25 14:41:01;;;;;;;15.25;12.15;;;;;;;3.43;73.97;101393.09;10327519;28;20815;-50
2023/01/25 14:46:30;;;;;;;14.93;12.73;;;;;;;3.39;74.03;101375.66;10345842;28;20049;-52
2023/01/25 14:51:33;;;;;;;15.90;12.35;;;;;;;3.43;74.16;101366.78;10344176;28;20057;-51
2023/01/25 14:56:47;;;;;;;16.02;12.18;;;;;;;3.56;74.52;101366.34;10342077;28;20580;-51
2023/01/25 15:01:51;;;;;;;16.75;12.70;;;;;;;3.65;73.95;101368.72;10340402;28;20049;-50
2023/01/25 15:06:54;;;;;;;16.65;13.32;;;;;;;3.50;73.94;101363.03;10343604;28;20049;-50
2023/01/25 15:12:19;;;;;;;16.08;12.32;;;;;;;3.45;73.72;101351.81;10338348;28;20042;-51
2023/01/25 15:17:36;;;;;;;16.85;13.55;;;;;;;3.47;74.24;101357.88;10333507;28;20615;-53
2023/01/25 15:22:38;;;;;;;18.27;13.30;;;;;;;3.38;74.72;101342.38;10340826;28;20045;-52
2023/01/25 15:27:39;;;;;;;16.23;12.32;;;;;;;3.36;74.23;101328.41;10343762;28;20813;-52
2023/01/25 15:32:42;;;;;;;20.70;13.57;;;;;;;3.39;74.22;101348.50;10348701;28;20187;-52
2023/01/25 15:37:44;;;;;;;17.27;14.00;;;;;;;3.48;74.20;101333.28;10339554;28;20053;-51
2023/01/25 15:42:49;;;;;;;21.08;16.63;;;;;;;3.37;74.28;101324.88;10342930;28;21000;-51
2023/01/25 15:47:51;;;;;;;18.23;15.38;;;;;;;3.56;74.87;101332.13;10349279;28;20060;-54
2023/01/25 15:52:52;;;;;;;17.52;13.98;;;;;;;3.47;74.37;101325.44;10344498;28;20088;-51
2023/01/25 15:57:54;;;;;;;19.30;15.63;;;;;;;3.40;74.49;101319.50;10347090;28;20084;-52
2023/01/25 16:02:55;;;;;;;19.05;15.35;;;;;;;3.36;74.93;101324.00;10343709;28;20492;-51
2023/01/25 16:07:57;;;;;;;18.70;15.00;;;;;;;3.36;74.76;101329.28;10346180;28;20060;-51
2023/01/25 16:12:58;;;;;;;19.30;15.75;;;;;;;3.34;74.84;101324.97;10346053;28;20046;-51
2023/01/25 16:18:00;;;;;;;21.02;15.05;;;;;;;3.35;75.25;101321.44;10344952;28;20046;-55
2023/01/25 16:23:01;;;;;;;18.15;14.18;;;;;;;3.34;75.07;101319.69;10355379;28;20064;-50
2023/01/25 16:28:03;;;;;;;17.58;14.20;;;;;;;3.35;74.93;101318.81;10348668;28;20052;-50
2023/01/25 16:33:05;;;;;;;17.40;14.05;;;;;;;3.42;75.08;101325.56;10353565;28;20330;-51
2023/01/25 16:38:09;;;;;;;20.20;14.60;;;;;;;3.46;74.97;101327.19;10355856;28;20061;-50
2023/01/25 16:43:11;;;;;;;20.50;15.68;;;;;;;3.42;75.25;101319.44;10347051;28;20056;-51
2023/01/25 16:48:14;;;;;;;18.52;14.68;;;;;;;3.50;75.26;101315.66;10352867;28;20064;-51
2023/01/25 16:53:16;;;;;;;21.30;15.20;;;;;;;3.48;74.81;101306.94;10352453;28;20139;-51
2023/01/25 16:58:17;;;;;;;20.42;14.50;;;;;;;3.53;74.68;101297.09;10353341;28;20621;-51
2023/01/25 17:03:19;;;;;;;19.60;15.15;;;;;;;3.43;75.17;101298.34;10351662;28;20053;-50
2023/01/25 17:08:20;;;;;;;20.58;15.82;;;;;;;3.42;74.94;101280.81;10348427;28;20530;-50
2023/01/25 17:13:22;;;;;;;20.55;15.23;;;;;;;3.39;75.59;101288.81;10348557;28;20056;-50
2023/01/25 17:18:24;;;;;;;18.65;14.07;;;;;;;3.44;75.02;101279.00;10350705;28;20046;-50
2023/01/25 17:23:27;;;;;;;19.67;15.95;;;;;;;3.45;75.00;101275.47;10352251;28;20186;-51
2023/01/25 17:28:28;;;;;;;21.08;16.40;;;;;;;3.38;75.01;101268.69;10348169;28;20276;-50
2023/01/25 17:33:31;;;;;;;17.88;14.68;;;;;;;3.41;75.11;101263.31;10354536;28;20132;-50
2023/01/25 17:38:32;;;;;;;19.70;15.45;;;;;;;3.31;75.00;101251.38;10358701;28;20151;-50
2023/01/25 17:43:34;;;;;;;23.05;17.10;;;;;;;3.25;75.48;101241.06;10353113;28;20125;-50
2023/01/25 17:48:36;;;;;;;21.98;16.63;;;;;;;3.36;75.50;101252.94;10357137;28;20046;-50
2023/01/25 17:53:37;;;;;;;19.45;15.10;;;;;;;3.35;75.46;101253.84;10351810;28;20053;-50
2023/01/25 17:58:40;;;;;;;20.00;15.88;;;;;;;3.28;75.13;101235.69;10337361;28;20069;-50
2023/01/25 18:03:43;;;;;;;23.13;16.75;;;;;;;3.31;75.30;101231.16;10351945;28;20061;-50
2023/01/25 18:08:47;;;;;;;21.45;16.38;;;;;;;3.32;75.60;101229.41;10354022;28;20514;-51
2023/01/25 18:13:54;;;;;;;20.63;15.50;;;;;;;3.30;75.21;101223.34;10351416;28;20048;-50
2023/01/25 18:18:59;;;;;;;21.63;15.90;;;;;;;3.25;75.59;101220.88;10349415;28;20053;-49
2023/01/25 18:24:21;;;;;;;21.07;16.70;;;;;;;3.17;75.78;101205.34;10351758;28;20108;-49
2023/01/25 18:29:32;;;;;;;21.00;16.92;;;;;;;3.21;76.07;101205.25;10342514;28;20140;-50
2023/01/25 18:34:34;;;;;;;23.50;16.25;;;;;;;3.51;78.22;101196.28;10348510;28;20250;-51
2023/01/25 18:39:35;;;;;;;21.50;16.38;;;;;;;3.48;75.46;101201.66;10349234;28;20074;-51
2023/01/25 18:44:36;;;;;;;19.15;15.68;;;;;;;3.40;75.42;101197.56;10351715;28;20044;-50
2023/01/25 18:49:39;;;;;;;22.83;17.52;;;;;;;3.25;75.64;101184.03;10341077;28;20136;-50
2023/01/25 18:54:42;;;;;;;22.75;16.65;;;;;;;3.28;75.55;101177.81;10345889;28;20133;-50
2023/01/25 18:59:44;;;;;;;23.42;17.60;;;;;;;3.27;75.75;101176.94;10342955;28;20053;-52
2023/01/25 19:04:45;;;;;;;22.67;17.95;;;;;;;3.32;75.41;101179.41;10346089;28;20045;-49
2023/01/25 19:09:47;;;;;;;23.98;19.85;;;;;;;3.36;75.22;101181.00;10344010;28;20440;-51
2023/01/25 19:14:48;;;;;;;24.65;18.75;;;;;;;3.32;75.00;101182.06;10349398;28;20576;-51
2023/01/25 19:19:50;;;;;;;26.75;19.42;;;;;;;3.27;75.30;101171.69;10350458;28;20068;-54
2023/01/25 19:24:51;;;;;;;22.02;17.58;;;;;;;3.27;75.32;101158.53;10343654;28;20071;-50
2023/01/25 19:29:52;;;;;;;21.52;16.92;;;;;;;3.29;75.01;101142.69;10338649;28;20061;-50
2023/01/25 19:34:54;;;;;;;19.95;17.52;;;;;;;3.20;74.87;101146.50;10346618;28;20556;-52
2023/01/25 19:39:55;;;;;;;25.00;17.35;;;;;;;3.22;75.15;101141.19;10345873;28;20467;-51
2023/01/25 19:45:00;;;;;;;20.48;16.40;;;;;;;3.18;75.49;101135.16;10343360;28;20103;-49
2023/01/25 19:50:02;;;;;;;23.88;18.33;;;;;;;3.21;75.58;101136.81;10351284;28;20038;-50
2023/01/25 19:55:05;;;;;;;22.63;17.63;;;;;;;3.15;75.63;101127.38;10357639;28;21387;-50
2023/01/25 20:00:07;;;;;;;23.75;18.23;;;;;;;3.03;75.59;101118.13;10340207;28;20053;-51
2023/01/25 20:05:09;;;;;;;23.73;17.73;;;;;;;2.78;75.64;101068.19;10355441;28;20415;-50
2023/01/25 20:10:11;;;;;;;25.17;19.48;;;;;;;3.12;76.08;101115.22;10355886;28;20101;-49
2023/01/25 20:15:12;;;;;;;22.83;16.65;;;;;;;3.04;75.51;101096.19;10350142;28;20050;-49
2023/01/25 20:20:15;;;;;;;19.38;16.00;;;;;;;3.12;75.29;101104.69;10352640;28;20109;-50
2023/01/25 20:25:16;;;;;;;18.90;16.02;;;;;;;3.00;75.34;101105.09;10357018;28;20129;-51
2023/01/25 20:30:18;;;;;;;25.80;18.38;;;;;;;2.95;76.18;101092.09;10353358;28;20056;-50
2023/01/25 20:35:19;;;;;;;23.10;18.45;;;;;;;2.93;76.16;101093.94;10353474;28;20061;-50
2023/01/25 20:40:21;;;;;;;25.30;19.23;;;;;;;3.01;76.13;101088.41;10347161;28;20146;-49
2023/01/25 20:45:22;;;;;;;23.27;18.63;;;;;;;2.97;75.84;101078.91;10347287;28;20690;-50
2023/01/25 20:50:24;;;;;;;22.90;18.25;;;;;;;3.06;75.83;101099.59;10344917;28;20061;-50
2023/01/25 20:55:25;;;;;;;22.50;17.75;;;;;;;3.05;75.36;101092.66;10347141;28;20064;-50
2023/01/25 21:00:26;;;;;;;22.00;18.48;;;;;;;3.03;75.47;101088.34;10342675;28;20602;-50
2023/01/25 21:05:28;;;;;;;23.30;18.13;;;;;;;2.89;75.53;101076.53;10338969;28;20566;-51
2023/01/25 21:10:30;;;;;;;22.92;16.92;;;;;;;2.93;76.06;101072.06;10346622;28;20061;-51
2023/01/25 21:15:31;;;;;;;22.55;16.65;;;;;;;2.92;75.92;101075.59;10346379;28;20056;-50
2023/01/25 21:20:35;;;;;;;23.17;18.70;;;;;;;2.95;76.11;101073.69;10345772;28;20060;-50
2023/01/25 21:25:36;;;;;;;22.02;17.65;;;;;;;3.10;75.62;101074.06;10347979;28;20049;-50
2023/01/25 21:30:37;;;;;;;24.60;18.23;;;;;;;2.95;76.15;101059.69;10346663;28;20050;-50
2023/01/25 21:35:39;;;;;;;24.77;19.98;;;;;;;2.96;76.33;101058.78;10339467;28;20101;-50
2023/01/25 21:40:40;;;;;;;26.55;20.13;;;;;;;3.03;75.97;101047.13;10347338;28;20053;-49
2023/01/25 21:51:48;;;;;;;26.20;19.55;;;;;;;2.93;76.46;101048.38;10343044;28;20050;-50
2023/01/25 21:56:28;;;;;;;20.15;14.75;;;;;;;2.92;76.42;101036.13;10341380;28;20049;-50
2023/01/25 22:01:29;;;;;;;27.05;18.20;;;;;;;3.01;76.64;101033.16;10349990;28;20056;-52
2023/01/25 22:06:31;;;;;;;28.35;20.05;;;;;;;3.02;76.33;101019.13;10340303;28;20660;-50
2023/01/25 22:11:33;;;;;;;26.80;19.58;;;;;;;2.99;76.37;101001.66;10342279;28;20050;-49
2023/01/25 22:16:35;;;;;;;24.70;18.52;;;;;;;2.93;76.33;101004.53;10339352;28;20082;-50
2023/01/25 22:21:36;;;;;;;26.58;20.63;;;;;;;2.93;76.46;100998.41;10339495;28;20545;-51
2023/01/25 22:26:44;;;;;;;23.35;19.10;;;;;;;2.85;76.89;100984.69;10340697;28;20167;-51
2023/01/25 22:31:46;;;;;;;26.30;19.63;;;;;;;2.96;76.38;100975.47;10344987;28;20068;-49
2023/01/25 22:36:47;;;;;;;26.15;19.38;;;;;;;2.86;76.67;100965.38;10344766;28;20049;-50
2023/01/25 22:41:49;;;;;;;26.70;20.02;;;;;;;2.88;76.58;100963.53;10344206;28;20139;-49
2023/01/25 22:46:51;;;;;;;25.15;20.00;;;;;;;2.83;76.84;100956.66;10341343;28;20073;-51
2023/01/25 22:51:53;;;;;;;25.10;17.77;;;;;;;2.86;76.97;100978.50;10341900;28;20179;-50
2023/01/25 22:56:54;;;;;;;24.40;18.30;;;;;;;2.82;76.93;100975.13;10344914;28;20144;-49
2023/01/25 23:01:55;;;;;;;25.17;18.42;;;;;;;2.75;77.20;100948.22;10348198;28;20054;-50
2023/01/25 23:07:01;;;;;;;25.30;18.67;;;;;;;2.78;77.20;100942.84;10341435;28;20060;-51
2023/01/25 23:12:03;;;;;;;26.60;19.85;;;;;;;2.77;77.33;100942.88;10336719;28;20045;-50
2023/01/25 23:22:27;;;;;;;28.17;20.33;;;;;;;2.73;77.50;100931.63;10346957;28;20521;-50
2023/01/25 23:27:28;;;;;;;28.05;20.58;;;;;;;2.74;77.74;100935.97;10354959;28;20099;-50
2023/01/25 23:32:30;;;;;;;27.70;18.65;;;;;;;2.76;77.71;100922.75;10351336;28;20111;-50